Aviation Digital Data Service (ADDS)

Output produced by METARs form (0032 UTC 31 July 2016)
found at http://aviationweather.gov/adds/metars/
 
KCLE 310012Z 3100/0106 VRB03KT P6SM SCT150 
     FM311000 19003KT 5SM BR SCT012 
     FM311400 21005KT P6SM BKN012 
     FM311700 28005KT P6SM BKN040 
     FM312000 36005KT P6SM SCT050 
     FM010100 VRB03KT P6SM SKC